KLBE/LBE METAR and TAF weather

Enter ICAO airport designator
Station Type Date Time Source
KLBE METAR 2021/09/16 21:47 UTC NOAA

KLBE 162147Z 09009KT 20SM SCT043 25/19 A3014


Station Type Date Time Source
KLBE Decoded METAR 2021/09/16 21:47 UTC NOAA

Latrobe / Westmorland, PA, United States (KLBE) 40-17N 079-24W
Sep 16, 2021 - 05:47 PM EDT / 2021.09.16 2147 UTC
Wind: from the E (090 degrees) at 10 MPH (9 KT):0
Visibility: 20 mile(s):0
Sky conditions: partly cloudy
Temperature: 77 F (25 C)
Dew Point: 66 F (19 C)
Relative Humidity: 69%
Pressure (altimeter): 30.14 in. Hg (1020 hPa)
ob: KLBE 162147Z 09009KT 20SM SCT043 25/19 A3014
cycle: 22

Station Type Date Time Source
KLBE TAF 2021/09/16 21:15 UTC NOAA

TAF
AMD KLBE 162112Z 1621/1718 12008G16KT P6SM SCT040
FM170800 13004KT 6SM BR BKN025
FM171200 13004KT 3SM BR OVC007
FM171400 14005KT P6SM BKN025
FM171700 14005KT P6SM SCT035

Example: see airport list